Time;durP1;ratioP1;P1;durP2;ratioP2;P2;SDS_P1;SDS_P2;PMS_P1;PMS_P2;Temp;Humidity;BMP_temperature;BMP_pressure;BME280_temperature;BME280_humidity;BME280_pressure;Samples;Min_cycle;Max_cycle;Signal;HPM_P1;HPM_P2
2021/11/30 00:00:36;;;;;;;;;;;;;;;;;;2091047;28;1223;-92
2021/11/30 00:01:39;;;;;;;;;;;;;;;;;;2090491;28;1235;-91
2021/11/30 00:02:40;;;;;;;;;;;;;;;;;;2082701;28;1285;-93
2021/11/30 00:03:42;;;;;;;;;;;;;;;;;;2082371;28;1378;-93
2021/11/30 00:04:44;;;;;;;;;;;;;;;;;;2074616;28;1347;-92
2021/11/30 00:05:48;;;;;;;;;;;;;;;;;;2075346;28;832;-93
2021/11/30 00:06:51;;;;;;;;;;;;;;;;;;2090827;28;2257;-93
2021/11/30 00:07:54;;;;;;;;;;;;;;;;;;2082643;28;1197;-93
2021/11/30 00:09:09;;;;;;;;;;;;;;;;;;2083092;28;1632;-93
2021/11/30 00:11:30;;;;;;;;;;;;;;;;;;2090008;28;2126;-93
2021/11/30 00:12:30;;;;;;;;;;;;;;;;;;2082677;28;1910;-93
2021/11/30 00:13:33;;;;;;;;;;;;;;;;;;2082416;28;1261;-93
2021/11/30 00:14:35;;;;;;;;;;;;;;;;;;2091021;28;1360;-93
2021/11/30 00:15:38;;;;;;;;;;;;;;;;;;2090734;28;1102;-92
2021/11/30 00:16:38;;;;;;;;;;;;;;;;;;2082181;28;2053;-92
2021/11/30 00:17:40;;;;;;;;;;;;;;;;;;2099143;28;1329;-92
2021/11/30 00:18:41;;;;;;;;;;;;;;;;;;2098874;28;1208;-94
2021/11/30 00:19:43;;;;;;;;;;;;;;;;;;2082315;28;1460;-93
2021/11/30 00:20:46;;;;;;;;;;;;;;;;;;2083470;28;1359;-92
2021/11/30 00:21:49;;;;;;;;;;;;;;;;;;2076324;28;1203;-93
2021/11/30 00:22:51;;;;;;;;;;;;;;;;;;2076520;28;1208;-92
2021/11/30 00:23:52;;;;;;;;;;;;;;;;;;2084351;28;990;-92
2021/11/30 00:24:54;;;;;;;;;;;;;;;;;;2084668;28;1127;-92
2021/11/30 00:25:55;;;;;;;;;;;;;;;;;;2092745;28;1480;-93
2021/11/30 00:26:58;;;;;;;;;;;;;;;;;;2091922;28;1204;-93
2021/11/30 00:27:58;;;;;;;;;;;;;;;;;;2084401;28;1282;-92
2021/11/30 00:29:00;;;;;;;;;;;;;;;;;;2092310;28;1310;-94
2021/11/30 00:30:01;;;;;;;;;;;;;;;;;;2076261;28;1245;-90
2021/11/30 00:31:03;;;;;;;;;;;;;;;;;;2068109;28;1217;-90
2021/11/30 00:32:04;;;;;;;;;;;;;;;;;;2081209;28;2013;-91
2021/11/30 00:33:06;;;;;;;;;;;;;;;;;;2083385;28;1914;-90
2021/11/30 00:34:07;;;;;;;;;;;;;;;;;;2084513;28;1349;-91
2021/11/30 00:35:09;;;;;;;;;;;;;;;;;;2084375;28;1343;-91
2021/11/30 00:36:12;;;;;;;;;;;;;;;;;;2084489;28;1220;-90
2021/11/30 00:37:13;;;;;;;;;;;;;;;;;;2090497;28;2119;-91
2021/11/30 00:38:16;;;;;;;;;;;;;;;;;;2084223;28;1281;-91
2021/11/30 00:39:17;;;;;;;;;;;;;;;;;;2076219;28;1220;-93
2021/11/30 00:40:19;;;;;;;;;;;;;;;;;;2084339;28;1226;-94
2021/11/30 00:41:23;;;;;;;;;;;;;;;;;;2068159;28;1307;-92
2021/11/30 00:42:25;;;;;;;;;;;;;;;;;;2075671;28;1285;-93
2021/11/30 00:43:33;;;;;;;;;;;;;;;;;;2100623;28;1415;-92
2021/11/30 00:44:37;;;;;;;;;;;;;;;;;;2091408;28;1593;-92
2021/11/30 00:45:47;;;;;;;;;;;;;;;;;;2076015;28;1556;-93
2021/11/30 00:46:51;;;;;;;;;;;;;;;;;;2080395;28;1214;-92
2021/11/30 00:47:55;;;;;;;;;;;;;;;;;;2076504;28;1431;-92
2021/11/30 00:48:58;;;;;;;;;;;;;;;;;;2077549;28;1283;-91
2021/11/30 00:50:02;;;;;;;;;;;;;;;;;;2092405;28;1218;-93
2021/11/30 00:51:05;;;;;;;;;;;;;;;;;;2084093;28;1306;-93
2021/11/30 00:52:09;;;;;;;;;;;;;;;;;;2084529;28;2147;-93
2021/11/30 00:53:10;;;;;;;;;;;;;;;;;;2083584;28;1965;-93
2021/11/30 00:54:13;;;;;;;;;;;;;;;;;;2083566;28;1268;-93
2021/11/30 00:55:14;;;;;;;;;;;;;;;;;;2076214;28;1415;-94
2021/11/30 00:56:17;;;;;;;;;;;;;;;;;;2083999;28;1360;-93
2021/11/30 00:57:18;;;;;;;;;;;;;;;;;;2092176;28;1303;-94
2021/11/30 00:58:20;;;;;;;;;;;;;;;;;;2075988;28;1483;-95
2021/11/30 00:59:26;;;;;;;;;;;;;;;;;;2084385;28;1301;-94
2021/11/30 01:00:30;;;;;;;;;;;;;;;;;;2084960;28;1223;-95
2021/11/30 01:01:31;;;;;;;;;;;;;;;;;;2077952;28;1907;-95
2021/11/30 01:02:34;;;;;;;;;;;;;;;;;;2084008;28;1304;-94
2021/11/30 01:03:34;;;;;;;;;;;;;;;;;;2083692;28;1376;-93
2021/11/30 01:04:36;;;;;;;;;;;;;;;;;;2084143;28;1392;-93
2021/11/30 01:05:37;;;;;;;;;;;;;;;;;;2083557;28;1205;-94
2021/11/30 01:06:39;;;;;;;;;;;;;;;;;;2085194;28;1230;-94
2021/11/30 01:07:41;;;;;;;;;;;;;;;;;;2083674;28;1394;-94
2021/11/30 01:08:43;;;;;;;;;;;;;;;;;;2075844;28;1170;-94
2021/11/30 01:09:43;;;;;;;;;;;;;;;;;;2075702;28;1427;-95
2021/11/30 01:10:45;;;;;;;;;;;;;;;;;;2083766;28;1350;-92
2021/11/30 01:11:46;;;;;;;;;;;;;;;;;;2094499;28;2035;-91
2021/11/30 01:12:48;;;;;;;;;;;;;;;;;;2100476;28;1383;-92
2021/11/30 01:13:49;;;;;;;;;;;;;;;;;;2083511;28;1544;-91
2021/11/30 01:14:51;;;;;;;;;;;;;;;;;;2092504;28;822;-91
2021/11/30 01:15:51;;;;;;;;;;;;;;;;;;2090331;28;2141;-91
2021/11/30 01:16:55;;;;;;;;;;;;;;;;;;2079491;28;1259;-91
2021/11/30 01:17:56;;;;;;;;;;;;;;;;;;2084113;28;750;-92
2021/11/30 01:18:57;;;;;;;;;;;;;;;;;;2083739;28;1344;-91
2021/11/30 01:19:58;;;;;;;;;;;;;;;;;;2092569;28;1444;-92
2021/11/30 01:21:01;;;;;;;;;;;;;;;;;;2099654;28;1296;-91
2021/11/30 01:22:03;;;;;;;;;;;;;;;;;;2092299;28;1432;-91
2021/11/30 01:23:06;;;;;;;;;;;;;;;;;;2091807;28;1425;-90
2021/11/30 01:24:07;;;;;;;;;;;;;;;;;;2100644;28;1322;-91
2021/11/30 01:25:10;;;;;;;;;;;;;;;;;;2100068;28;1340;-90
2021/11/30 01:26:11;;;;;;;;;;;;;;;;;;2084087;28;1279;-91
2021/11/30 01:27:13;;;;;;;;;;;;;;;;;;2083558;28;1303;-90
2021/11/30 01:28:13;;;;;;;;;;;;;;;;;;2083901;28;1376;-90
2021/11/30 01:29:15;;;;;;;;;;;;;;;;;;2075774;28;1117;-90
2021/11/30 01:30:16;;;;;;;;;;;;;;;;;;2075765;28;1541;-90
2021/11/30 01:31:18;;;;;;;;;;;;;;;;;;2083519;28;1723;-91
2021/11/30 01:32:19;;;;;;;;;;;;;;;;;;2091613;28;1354;-90
2021/11/30 01:33:21;;;;;;;;;;;;;;;;;;2100287;28;1941;-91
2021/11/30 01:34:22;;;;;;;;;;;;;;;;;;2091963;28;1219;-91
2021/11/30 01:35:24;;;;;;;;;;;;;;;;;;2091960;28;1477;-90
2021/11/30 01:36:25;;;;;;;;;;;;;;;;;;2092094;28;1413;-90
2021/11/30 01:37:28;;;;;;;;;;;;;;;;;;2075718;28;1310;-92
2021/11/30 01:38:34;;;;;;;;;;;;;;;;;;2076096;28;1477;-91
2021/11/30 01:39:36;;;;;;;;;;;;;;;;;;2075656;28;1566;-90
2021/11/30 01:40:37;;;;;;;;;;;;;;;;;;2083408;28;1363;-91
2021/11/30 01:41:41;;;;;;;;;;;;;;;;;;2084939;28;1324;-90
2021/11/30 01:42:45;;;;;;;;;;;;;;;;;;2084134;28;1355;-91
2021/11/30 01:43:48;;;;;;;;;;;;;;;;;;2075798;28;1339;-90
2021/11/30 01:44:50;;;;;;;;;;;;;;;;;;2075420;28;1484;-91
2021/11/30 01:46:05;;;;;;;;;;;;;;;;;;2076829;28;1066;-91
2021/11/30 01:47:23;;;;;;;;;;;;;;;;;;2075578;28;2058;-91
2021/11/30 01:49:46;;;;;;;;;;;;;;;;;;2078118;28;1279;-89
2021/11/30 01:50:46;;;;;;;;;;;;;;;;;;2067721;28;1887;-90
2021/11/30 01:51:49;;;;;;;;;;;;;;;;;;2075258;28;1293;-91
2021/11/30 01:52:50;;;;;;;;;;;;;;;;;;2099970;28;1356;-90
2021/11/30 01:53:55;;;;;;;;;;;;;;;;;;2091416;28;1902;-91
2021/11/30 01:54:56;;;;;;;;;;;;;;;;;;2076202;28;1289;-90
2021/11/30 01:55:58;;;;;;;;;;;;;;;;;;2083420;28;1188;-91
2021/11/30 01:56:59;;;;;;;;;;;;;;;;;;2078788;28;1453;-91
2021/11/30 01:58:01;;;;;;;;;;;;;;;;;;2067319;28;1322;-90
2021/11/30 01:59:03;;;;;;;;;;;;;;;;;;2075232;28;1396;-91
2021/11/30 02:00:08;;;;;;;;;;;;;;;;;;2083936;28;1231;-91
2021/11/30 02:01:09;;;;;;;;;;;;;;;;;;2083966;28;1298;-91
2021/11/30 02:02:12;;;;;;;;;;;;;;;;;;2081192;28;1194;-92
2021/11/30 02:03:12;;;;;;;;;;;;;;;;;;2067611;28;1229;-91
2021/11/30 02:04:15;;;;;;;;;;;;;;;;;;2075415;28;1240;-91
2021/11/30 02:05:16;;;;;;;;;;;;;;;;;;2075605;28;1355;-91
2021/11/30 02:06:26;;;;;;;;;;;;;;;;;;2075782;28;1113;-91
2021/11/30 02:07:26;;;;;;;;;;;;;;;;;;2076904;28;1194;-95
2021/11/30 02:08:29;;;;;;;;;;;;;;;;;;2075648;28;1395;-95
2021/11/30 02:09:31;;;;;;;;;;;;;;;;;;2075383;28;1310;-95
2021/11/30 02:10:35;;;;;;;;;;;;;;;;;;2075570;28;1287;-95
2021/11/30 02:11:36;;;;;;;;;;;;;;;;;;2092951;28;1418;-96
2021/11/30 02:12:39;;;;;;;;;;;;;;;;;;2108537;28;1209;-95
2021/11/30 02:13:40;;;;;;;;;;;;;;;;;;2083609;28;1918;-95
2021/11/30 02:14:45;;;;;;;;;;;;;;;;;;2083643;28;1114;-95
2021/11/30 02:15:49;;;;;;;;;;;;;;;;;;2075842;28;1413;-95
2021/11/30 02:16:52;;;;;;;;;;;;;;;;;;2091902;28;1282;-95
2021/11/30 02:17:54;;;;;;;;;;;;;;;;;;2091447;28;1338;-91
2021/11/30 02:19:00;;;;;;;;;;;;;;;;;;2067195;28;1353;-91
2021/11/30 02:20:03;;;;;;;;;;;;;;;;;;2084436;28;1342;-91
2021/11/30 02:21:06;;;;;;;;;;;;;;;;;;2091610;28;1197;-91
2021/11/30 02:22:11;;;;;;;;;;;;;;;;;;2083558;28;1351;-91
2021/11/30 02:23:24;;;;;;;;;;;;;;;;;;2067588;28;1259;-91
2021/11/30 02:24:24;;;;;;;;;;;;;;;;;;2070575;28;1395;-91
2021/11/30 02:25:27;;;;;;;;;;;;;;;;;;2091685;28;1281;-92
2021/11/30 02:26:28;;;;;;;;;;;;;;;;;;2099865;28;1348;-93
2021/11/30 02:27:30;;;;;;;;;;;;;;;;;;2075249;28;1266;-94
2021/11/30 02:28:31;;;;;;;;;;;;;;;;;;2067470;28;1291;-93
2021/11/30 02:29:33;;;;;;;;;;;;;;;;;;2083377;28;1065;-93
2021/11/30 02:30:34;;;;;;;;;;;;;;;;;;2083752;28;1268;-91
2021/11/30 02:31:37;;;;;;;;;;;;;;;;;;2074991;28;1203;-90
2021/11/30 02:32:37;;;;;;;;;;;;;;;;;;2083402;28;1434;-91
2021/11/30 02:33:39;;;;;;;;;;;;;;;;;;2091251;28;1918;-91
2021/11/30 02:34:40;;;;;;;;;;;;;;;;;;2083168;28;1364;-92
2021/11/30 02:35:43;;;;;;;;;;;;;;;;;;2075002;28;1319;-92
2021/11/30 02:36:52;;;;;;;;;;;;;;;;;;2077292;28;1386;-91
2021/11/30 02:37:58;;;;;;;;;;;;;;;;;;2076432;28;1231;-91
2021/11/30 02:39:01;;;;;;;;;;;;;;;;;;2083520;28;1399;-92
2021/11/30 02:40:02;;;;;;;;;;;;;;;;;;2074739;28;1207;-93
2021/11/30 02:41:04;;;;;;;;;;;;;;;;;;2066852;28;1260;-94
2021/11/30 02:42:08;;;;;;;;;;;;;;;;;;2083497;28;1331;-93
2021/11/30 02:43:10;;;;;;;;;;;;;;;;;;2082466;28;1365;-94
2021/11/30 02:44:13;;;;;;;;;;;;;;;;;;2083890;28;1135;-95
2021/11/30 02:45:19;;;;;;;;;;;;;;;;;;2082724;28;1459;-95
2021/11/30 02:46:30;;;;;;;;;;;;;;;;;;2083991;28;1377;-95
2021/11/30 02:47:32;;;;;;;;;;;;;;;;;;2083025;28;1195;-95
2021/11/30 02:48:35;;;;;;;;;;;;;;;;;;2074813;28;1345;-95
2021/11/30 02:49:38;;;;;;;;;;;;;;;;;;2074983;28;1291;-95
2021/11/30 02:50:41;;;;;;;;;;;;;;;;;;2075265;28;1478;-94
2021/11/30 02:52:02;;;;;;;;;;;;;;;;;;2083105;28;836;-95
2021/11/30 02:53:21;;;;;;;;;;;;;;;;;;2083346;28;1227;-94
2021/11/30 02:54:23;;;;;;;;;;;;;;;;;;2075296;28;1906;-95
2021/11/30 02:55:24;;;;;;;;;;;;;;;;;;2091548;28;1244;-96
2021/11/30 02:56:26;;;;;;;;;;;;;;;;;;2091450;28;1230;-94
2021/11/30 02:57:28;;;;;;;;;;;;;;;;;;2074931;28;1269;-95
2021/11/30 02:58:28;;;;;;;;;;;;;;;;;;2075193;28;1405;-95
2021/11/30 02:59:32;;;;;;;;;;;;;;;;;;2091540;28;1340;-96
2021/11/30 03:00:33;;;;;;;;;;;;;;;;;;2082971;28;1169;-95
2021/11/30 03:01:35;;;;;;;;;;;;;;;;;;2073813;28;2078;-92
2021/11/30 03:02:37;;;;;;;;;;;;;;;;;;2091454;28;1270;-95
2021/11/30 03:03:39;;;;;;;;;;;;;;;;;;2099106;28;991;-96
2021/11/30 03:04:42;;;;;;;;;;;;;;;;;;2083471;28;1315;-95
2021/11/30 03:05:45;;;;;;;;;;;;;;;;;;2075364;28;1334;-94
2021/11/30 03:06:47;;;;;;;;;;;;;;;;;;2074952;28;1267;-94
2021/11/30 03:07:49;;;;;;;;;;;;;;;;;;2074937;28;1472;-93
2021/11/30 03:08:50;;;;;;;;;;;;;;;;;;2082855;28;1185;-94
2021/11/30 03:09:52;;;;;;;;;;;;;;;;;;2074772;28;1427;-92
2021/11/30 03:10:55;;;;;;;;;;;;;;;;;;2074991;28;1509;-94
2021/11/30 03:11:57;;;;;;;;;;;;;;;;;;2083293;28;1249;-92
2021/11/30 03:12:58;;;;;;;;;;;;;;;;;;2082635;28;1304;-93
2021/11/30 03:14:00;;;;;;;;;;;;;;;;;;2083163;28;1973;-93
2021/11/30 03:15:05;;;;;;;;;;;;;;;;;;2074975;28;1440;-94
2021/11/30 03:16:07;;;;;;;;;;;;;;;;;;2067626;28;1195;-93
2021/11/30 03:17:08;;;;;;;;;;;;;;;;;;2066584;28;1289;-93
2021/11/30 03:18:10;;;;;;;;;;;;;;;;;;2074823;28;1391;-94
2021/11/30 03:19:11;;;;;;;;;;;;;;;;;;2074879;28;1216;-94
2021/11/30 03:20:13;;;;;;;;;;;;;;;;;;2083009;28;1376;-95
2021/11/30 03:21:13;;;;;;;;;;;;;;;;;;2082960;28;1344;-94
2021/11/30 03:22:17;;;;;;;;;;;;;;;;;;2089424;28;2021;-94
2021/11/30 03:23:18;;;;;;;;;;;;;;;;;;2083006;28;1360;-94
2021/11/30 03:24:20;;;;;;;;;;;;;;;;;;2074880;28;1525;-93
2021/11/30 03:25:20;;;;;;;;;;;;;;;;;;2082645;28;1278;-94
2021/11/30 03:26:22;;;;;;;;;;;;;;;;;;2083165;28;1473;-93
2021/11/30 03:27:23;;;;;;;;;;;;;;;;;;2082912;28;1400;-94
2021/11/30 03:28:25;;;;;;;;;;;;;;;;;;2099635;28;1598;-94
2021/11/30 03:29:26;;;;;;;;;;;;;;;;;;2090985;28;1440;-94
2021/11/30 03:30:28;;;;;;;;;;;;;;;;;;2083114;28;1038;-93
2021/11/30 03:31:33;;;;;;;;;;;;;;;;;;2091428;28;1320;-94
2021/11/30 03:34:01;;;;;;;;;;;;;;;;;;2090957;28;1986;-94
2021/11/30 03:35:03;;;;;;;;;;;;;;;;;;2083621;28;1349;-93
2021/11/30 03:36:04;;;;;;;;;;;;;;;;;;2083202;28;1411;-94
2021/11/30 03:37:07;;;;;;;;;;;;;;;;;;2091228;28;1101;-93
2021/11/30 03:38:09;;;;;;;;;;;;;;;;;;2090817;28;1316;-92
2021/11/30 03:39:13;;;;;;;;;;;;;;;;;;2090755;28;1181;-94
2021/11/30 03:40:14;;;;;;;;;;;;;;;;;;2090701;28;1232;-94
2021/11/30 03:41:17;;;;;;;;;;;;;;;;;;2083165;28;1288;-95
2021/11/30 03:42:19;;;;;;;;;;;;;;;;;;2082660;28;1459;-94
2021/11/30 03:43:20;;;;;;;;;;;;;;;;;;2074996;28;1354;-93
2021/11/30 03:44:23;;;;;;;;;;;;;;;;;;2090714;28;1439;-93
2021/11/30 03:45:24;;;;;;;;;;;;;;;;;;2099321;28;1539;-94
2021/11/30 03:46:26;;;;;;;;;;;;;;;;;;2091002;28;1322;-94
2021/11/30 03:47:27;;;;;;;;;;;;;;;;;;2066455;28;1327;-95
2021/11/30 03:48:29;;;;;;;;;;;;;;;;;;2074928;28;1211;-93
2021/11/30 03:49:31;;;;;;;;;;;;;;;;;;2074410;28;1344;-95
2021/11/30 03:50:32;;;;;;;;;;;;;;;;;;2090861;28;1306;-95
2021/11/30 03:51:34;;;;;;;;;;;;;;;;;;2091652;28;1261;-93
2021/11/30 03:52:36;;;;;;;;;;;;;;;;;;2082685;28;1276;-93
2021/11/30 03:53:39;;;;;;;;;;;;;;;;;;2091135;28;1247;-93
2021/11/30 03:54:41;;;;;;;;;;;;;;;;;;2090396;28;1898;-93
2021/11/30 03:55:42;;;;;;;;;;;;;;;;;;2082505;28;1448;-94
2021/11/30 03:56:44;;;;;;;;;;;;;;;;;;2090473;28;1261;-94
2021/11/30 03:57:45;;;;;;;;;;;;;;;;;;2082550;28;1481;-93
2021/11/30 03:58:47;;;;;;;;;;;;;;;;;;2074389;28;1192;-95
2021/11/30 03:59:47;;;;;;;;;;;;;;;;;;2074228;28;1461;-94
2021/11/30 04:00:50;;;;;;;;;;;;;;;;;;2082648;28;1062;-94
2021/11/30 04:01:50;;;;;;;;;;;;;;;;;;2090653;28;1223;-94
2021/11/30 04:02:52;;;;;;;;;;;;;;;;;;2082833;28;1317;-92
2021/11/30 04:03:55;;;;;;;;;;;;;;;;;;2074671;28;1327;-92
2021/11/30 04:04:57;;;;;;;;;;;;;;;;;;2074630;28;1472;-94
2021/11/30 04:05:58;;;;;;;;;;;;;;;;;;2066780;28;1304;-92
2021/11/30 04:07:00;;;;;;;;;;;;;;;;;;2082023;28;1326;-93
2021/11/30 04:08:05;;;;;;;;;;;;;;;;;;2082854;28;1446;-93
2021/11/30 04:09:11;;;;;;;;;;;;;;;;;;2066211;28;1287;-94
2021/11/30 04:10:11;;;;;;;;;;;;;;;;;;2066773;28;1292;-92
2021/11/30 04:11:14;;;;;;;;;;;;;;;;;;2074279;28;1195;-91
2021/11/30 04:12:14;;;;;;;;;;;;;;;;;;2088824;28;1212;-92
2021/11/30 04:13:16;;;;;;;;;;;;;;;;;;2081786;28;1146;-92
2021/11/30 04:14:18;;;;;;;;;;;;;;;;;;2091011;28;1969;-91
2021/11/30 04:15:21;;;;;;;;;;;;;;;;;;2090997;28;1343;-91
2021/11/30 04:16:22;;;;;;;;;;;;;;;;;;2082814;28;1266;-91
2021/11/30 04:17:24;;;;;;;;;;;;;;;;;;2082359;28;1336;-92
2021/11/30 04:18:25;;;;;;;;;;;;;;;;;;2066776;28;1447;-94
2021/11/30 04:19:26;;;;;;;;;;;;;;;;;;2074089;28;1038;-90
2021/11/30 04:20:27;;;;;;;;;;;;;;;;;;2091229;28;1342;-91
2021/11/30 04:21:29;;;;;;;;;;;;;;;;;;2090901;28;2008;-90
2021/11/30 04:22:31;;;;;;;;;;;;;;;;;;2091356;28;931;-91
2021/11/30 04:23:33;;;;;;;;;;;;;;;;;;2091174;28;1280;-91
2021/11/30 04:24:35;;;;;;;;;;;;;;;;;;2082654;28;1172;-90
2021/11/30 04:25:37;;;;;;;;;;;;;;;;;;2082521;28;1237;-89
2021/11/30 04:26:38;;;;;;;;;;;;;;;;;;2090999;28;1525;-89
2021/11/30 04:27:40;;;;;;;;;;;;;;;;;;2090547;28;1193;-90
2021/11/30 04:28:42;;;;;;;;;;;;;;;;;;2099014;28;1426;-91
2021/11/30 04:29:45;;;;;;;;;;;;;;;;;;2098491;28;1292;-90
2021/11/30 04:30:46;;;;;;;;;;;;;;;;;;2083040;28;1230;-90
2021/11/30 04:31:48;;;;;;;;;;;;;;;;;;2082745;28;1469;-90
2021/11/30 04:32:48;;;;;;;;;;;;;;;;;;2090907;28;1236;-90
2021/11/30 04:33:50;;;;;;;;;;;;;;;;;;2090892;28;892;-90
2021/11/30 04:34:51;;;;;;;;;;;;;;;;;;2091100;28;1975;-90
2021/11/30 04:35:53;;;;;;;;;;;;;;;;;;2090722;28;1460;-90
2021/11/30 04:36:55;;;;;;;;;;;;;;;;;;2082549;28;1453;-90
2021/11/30 04:37:56;;;;;;;;;;;;;;;;;;2090601;28;1234;-90
2021/11/30 04:38:58;;;;;;;;;;;;;;;;;;2090985;28;1345;-90
2021/11/30 04:40:00;;;;;;;;;;;;;;;;;;2074643;28;1204;-90
2021/11/30 04:41:02;;;;;;;;;;;;;;;;;;2090745;28;1275;-90
2021/11/30 04:42:03;;;;;;;;;;;;;;;;;;2098777;28;1211;-90
2021/11/30 04:43:08;;;;;;;;;;;;;;;;;;2082839;28;1469;-94
2021/11/30 04:44:10;;;;;;;;;;;;;;;;;;2082884;28;1409;-94
2021/11/30 04:45:16;;;;;;;;;;;;;;;;;;2082240;28;1260;-90
2021/11/30 04:46:20;;;;;;;;;;;;;;;;;;2082983;28;1292;-90
2021/11/30 04:47:20;;;;;;;;;;;;;;;;;;2099585;28;1292;-91
2021/11/30 04:48:29;;;;;;;;;;;;;;;;;;2090424;28;1437;-91
2021/11/30 04:49:52;;;;;;;;;;;;;;;;;;2083388;28;1437;-95
2021/11/30 04:50:56;;;;;;;;;;;;;;;;;;2075478;28;2176;-96
2021/11/30 04:51:57;;;;;;;;;;;;;;;;;;2070384;28;1267;-96
2021/11/30 04:53:00;;;;;;;;;;;;;;;;;;2074383;28;1309;-95
2021/11/30 04:54:01;;;;;;;;;;;;;;;;;;2082685;28;1342;-95
2021/11/30 04:55:05;;;;;;;;;;;;;;;;;;2074102;28;1919;-95
2021/11/30 04:56:06;;;;;;;;;;;;;;;;;;2074915;28;1305;-94
2021/11/30 04:57:08;;;;;;;;;;;;;;;;;;2090194;28;1361;-95
2021/11/30 04:58:09;;;;;;;;;;;;;;;;;;2091125;28;1320;-94
2021/11/30 04:59:20;;;;;;;;;;;;;;;;;;2090825;28;1422;-93
2021/11/30 05:00:22;;;;;;;;;;;;;;;;;;2091241;28;947;-94
2021/11/30 05:01:26;;;;;;;;;;;;;;;;;;2082330;28;1240;-93
2021/11/30 05:02:29;;;;;;;;;;;;;;;;;;2067119;28;1181;-93
2021/11/30 05:03:31;;;;;;;;;;;;;;;;;;2090755;28;1306;-94
2021/11/30 05:04:33;;;;;;;;;;;;;;;;;;2082327;28;1303;-92
2021/11/30 05:05:35;;;;;;;;;;;;;;;;;;2090656;28;1386;-92
2021/11/30 05:06:36;;;;;;;;;;;;;;;;;;2091864;28;1099;-95
2021/11/30 05:07:38;;;;;;;;;;;;;;;;;;2083604;28;1397;-93
2021/11/30 05:08:39;;;;;;;;;;;;;;;;;;2067839;28;1319;-92
2021/11/30 05:09:41;;;;;;;;;;;;;;;;;;2067866;28;1306;-93
2021/11/30 05:10:46;;;;;;;;;;;;;;;;;;2084097;28;1464;-92
2021/11/30 05:11:49;;;;;;;;;;;;;;;;;;2068021;28;1297;-92
2021/11/30 05:12:50;;;;;;;;;;;;;;;;;;2076692;28;1406;-92
2021/11/30 05:13:55;;;;;;;;;;;;;;;;;;2083189;28;1077;-92
2021/11/30 05:14:57;;;;;;;;;;;;;;;;;;2076443;28;1977;-92
2021/11/30 05:16:00;;;;;;;;;;;;;;;;;;2094527;28;1265;-91
2021/11/30 05:17:01;;;;;;;;;;;;;;;;;;2091697;28;2229;-92
2021/11/30 05:18:04;;;;;;;;;;;;;;;;;;2075786;28;1430;-92
2021/11/30 05:19:04;;;;;;;;;;;;;;;;;;2075876;28;1461;-91
2021/11/30 05:20:14;;;;;;;;;;;;;;;;;;2076117;28;1440;-91
2021/11/30 05:21:28;;;;;;;;;;;;;;;;;;2080196;28;1943;-91
2021/11/30 05:22:29;;;;;;;;;;;;;;;;;;2077453;28;1405;-91
2021/11/30 05:23:35;;;;;;;;;;;;;;;;;;2075447;28;1293;-91
2021/11/30 05:24:36;;;;;;;;;;;;;;;;;;2076478;28;1408;-91
2021/11/30 05:25:48;;;;;;;;;;;;;;;;;;2092403;28;1271;-92
2021/11/30 05:27:16;;;;;;;;;;;;;;;;;;2087093;28;1189;-91
2021/11/30 05:28:17;;;;;;;;;;;;;;;;;;2084138;28;1515;-92
2021/11/30 05:29:21;;;;;;;;;;;;;;;;;;2083337;28;1565;-92
2021/11/30 05:30:42;;;;;;;;;;;;;;;;;;2091859;28;1275;-93
2021/11/30 05:31:43;;;;;;;;;;;;;;;;;;2089455;28;1882;-89
2021/11/30 05:32:45;;;;;;;;;;;;;;;;;;2075857;28;1377;-91
2021/11/30 05:33:47;;;;;;;;;;;;;;;;;;2075796;28;1209;-89
2021/11/30 05:34:52;;;;;;;;;;;;;;;;;;2084919;28;1922;-93
2021/11/30 05:35:55;;;;;;;;;;;;;;;;;;2083920;28;1343;-91
2021/11/30 05:36:55;;;;;;;;;;;;;;;;;;2079307;28;1915;-92
2021/11/30 05:37:57;;;;;;;;;;;;;;;;;;2092003;28;1058;-90
2021/11/30 05:38:59;;;;;;;;;;;;;;;;;;2100069;28;1385;-90
2021/11/30 05:40:01;;;;;;;;;;;;;;;;;;2100176;28;1248;-86
2021/11/30 05:41:26;;;;;;;;;;;;;;;;;;2075692;28;1015;-94
2021/11/30 06:01:21;;;;;;;;;;;;;;;;;;2070996;28;1010;-90
2021/11/30 06:02:23;;;;;;;;;;;;;;;;;;2075240;28;2157;-87
2021/11/30 06:03:29;;;;;;;;;;;;;;;;;;2067011;28;1236;-88
2021/11/30 06:04:30;;;;;;;;;;;;;;;;;;2060554;28;1235;-86
2021/11/30 06:05:32;;;;;;;;;;;;;;;;;;2066844;28;1242;-88
2021/11/30 06:06:35;;;;;;;;;;;;;;;;;;2067054;28;1297;-90
2021/11/30 06:07:35;;;;;;;;;;;;;;;;;;2075109;28;1310;-89
2021/11/30 06:10:21;;;;;;;;;;;;;;;;;;2076080;28;685;-89
2021/11/30 06:13:02;;;;;;;;;;;;;;;;;;2075621;28;1258;-90
2021/11/30 06:14:03;;;;;;;;;;;;;;;;;;2075398;28;1223;-90
2021/11/30 06:15:05;;;;;;;;;;;;;;;;;;2074851;28;1918;-89
2021/11/30 06:16:05;;;;;;;;;;;;;;;;;;2067259;28;1292;-89
2021/11/30 06:17:10;;;;;;;;;;;;;;;;;;2075027;28;1213;-89
2021/11/30 06:18:10;;;;;;;;;;;;;;;;;;2074980;28;1153;-88
2021/11/30 06:19:14;;;;;;;;;;;;;;;;;;2074718;28;1071;-89
2021/11/30 06:20:21;;;;;;;;;;;;;;;;;;2059513;28;1303;-89
2021/11/30 06:25:23;;;;;;;;;;;;;;;;;;2076097;28;607;-90
2021/11/30 06:26:25;;;;;;;;;;;;;;;;;;2075489;28;1267;-88
2021/11/30 06:27:26;;;;;;;;;;;;;;;;;;2067342;28;1216;-90
2021/11/30 06:28:28;;;;;;;;;;;;;;;;;;2067273;28;1205;-90
2021/11/30 06:29:30;;;;;;;;;;;;;;;;;;2067215;28;1501;-88
2021/11/30 06:30:30;;;;;;;;;;;;;;;;;;2066962;28;1332;-89
2021/11/30 06:31:32;;;;;;;;;;;;;;;;;;2051305;28;1452;-89
2021/11/30 06:32:36;;;;;;;;;;;;;;;;;;2059672;28;1213;-88
2021/11/30 06:33:37;;;;;;;;;;;;;;;;;;2067263;28;1404;-89
2021/11/30 06:34:39;;;;;;;;;;;;;;;;;;2067361;28;1301;-88
2021/11/30 06:35:40;;;;;;;;;;;;;;;;;;2067490;28;1879;-89
2021/11/30 06:36:41;;;;;;;;;;;;;;;;;;2066926;28;1216;-88
2021/11/30 06:37:42;;;;;;;;;;;;;;;;;;2067574;28;1191;-89
2021/11/30 06:38:44;;;;;;;;;;;;;;;;;;2067466;28;1449;-89
2021/11/30 06:39:44;;;;;;;;;;;;;;;;;;2067339;28;1486;-89
2021/11/30 06:40:46;;;;;;;;;;;;;;;;;;2066958;28;1198;-88
2021/11/30 06:41:47;;;;;;;;;;;;;;;;;;2067244;28;1344;-88
2021/11/30 06:42:49;;;;;;;;;;;;;;;;;;2075543;28;1377;-88
2021/11/30 06:43:52;;;;;;;;;;;;;;;;;;2083671;28;1338;-86
2021/11/30 06:44:53;;;;;;;;;;;;;;;;;;2075241;28;1184;-87
2021/11/30 06:45:55;;;;;;;;;;;;;;;;;;2075153;28;1249;-89
2021/11/30 06:46:56;;;;;;;;;;;;;;;;;;2075327;28;1281;-88
2021/11/30 06:50:32;;;;;;;;;;;;;;;;;;2075874;28;655;-87
2021/11/30 06:51:34;;;;;;;;;;;;;;;;;;2075324;28;1444;-87
2021/11/30 06:52:37;;;;;;;;;;;;;;;;;;2075091;28;1269;-88
2021/11/30 06:53:39;;;;;;;;;;;;;;;;;;2067530;28;1386;-89
2021/11/30 06:54:44;;;;;;;;;;;;;;;;;;2067123;28;1529;-89
2021/11/30 06:55:46;;;;;;;;;;;;;;;;;;2067032;28;1964;-89
2021/11/30 06:56:46;;;;;;;;;;;;;;;;;;2075130;28;1313;-88
2021/11/30 06:57:48;;;;;;;;;;;;;;;;;;2083006;28;1468;-89
2021/11/30 06:58:49;;;;;;;;;;;;;;;;;;2074617;28;1612;-89
2021/11/30 06:59:52;;;;;;;;;;;;;;;;;;2059128;28;1448;-89
2021/11/30 07:00:53;;;;;;;;;;;;;;;;;;2071679;28;1226;-87
2021/11/30 07:01:57;;;;;;;;;;;;;;;;;;2083365;28;1227;-88
2021/11/30 07:02:58;;;;;;;;;;;;;;;;;;2083022;28;1220;-89
2021/11/30 07:04:02;;;;;;;;;;;;;;;;;;2083063;28;1357;-88
2021/11/30 07:05:14;;;;;;;;;;;;;;;;;;2083328;28;1196;-88
2021/11/30 07:06:22;;;;;;;;;;;;;;;;;;2085063;28;1301;-88
2021/11/30 07:07:32;;;;;;;;;;;;;;;;;;2084375;28;1432;-87
2021/11/30 07:08:48;;;;;;;;;;;;;;;;;;2084483;28;1188;-85
2021/11/30 07:13:44;;;;;;;;;;;;;;;;;;2091627;28;986;-88
2021/11/30 07:18:59;;;;;;;;;;;;;;;;;;2091330;28;638;-89
2021/11/30 07:20:04;;;;;;;;;;;;;;;;;;2099733;28;1426;-90
2021/11/30 07:21:08;;;;;;;;;;;;;;;;;;2091051;28;1297;-90
2021/11/30 07:24:41;;;;;;;;;;;;;;;;;;2091415;28;666;-90
2021/11/30 07:25:52;;;;;;;;;;;;;;;;;;2082643;28;1460;-89
2021/11/30 07:30:53;;;;;;;;;;;;;;;;;;2091390;28;603;-89
2021/11/30 07:31:54;;;;;;;;;;;;;;;;;;2099431;28;1419;-89
2021/11/30 07:35:29;;;;;;;;;;;;;;;;;;2090389;28;678;-87
2021/11/30 07:36:52;;;;;;;;;;;;;;;;;;2082809;28;1209;-89
2021/11/30 07:42:01;;;;;;;;;;;;;;;;;;2091218;28;682;-83
2021/11/30 07:43:02;;;;;;;;;;;;;;;;;;2085573;28;1527;-83
2021/11/30 07:44:05;;;;;;;;;;;;;;;;;;2083071;28;1321;-84
2021/11/30 07:45:06;;;;;;;;;;;;;;;;;;2091385;28;998;-83
2021/11/30 07:46:08;;;;;;;;;;;;;;;;;;2090379;28;1361;-84
2021/11/30 07:47:10;;;;;;;;;;;;;;;;;;2091290;28;947;-84
2021/11/30 07:48:10;;;;;;;;;;;;;;;;;;2083079;28;1319;-84
2021/11/30 07:49:13;;;;;;;;;;;;;;;;;;2082869;28;1331;-83
2021/11/30 07:50:17;;;;;;;;;;;;;;;;;;2091222;28;1507;-89
2021/11/30 07:51:27;;;;;;;;;;;;;;;;;;2091401;28;1639;-90
2021/11/30 07:52:36;;;;;;;;;;;;;;;;;;2099490;28;1278;-89
2021/11/30 07:53:45;;;;;;;;;;;;;;;;;;2098879;28;1312;-92
2021/11/30 07:58:28;;;;;;;;;;;;;;;;;;2092253;28;623;-90
2021/11/30 07:59:31;;;;;;;;;;;;;;;;;;2091189;28;1542;-93
2021/11/30 08:00:33;;;;;;;;;;;;;;;;;;2083266;28;1329;-88
2021/11/30 08:05:23;;;;;;;;;;;;;;;;;;2091223;28;1175;-89
2021/11/30 08:06:23;;;;;;;;;;;;;;;;;;2082672;28;1369;-85
2021/11/30 08:07:25;;;;;;;;;;;;;;;;;;2090734;28;1276;-83
2021/11/30 08:08:27;;;;;;;;;;;;;;;;;;2074711;28;1428;-83
2021/11/30 08:09:34;;;;;;;;;;;;;;;;;;2082880;28;1384;-85
2021/11/30 08:10:36;;;;;;;;;;;;;;;;;;2091609;28;1035;-86
2021/11/30 08:11:37;;;;;;;;;;;;;;;;;;2082782;28;1244;-87
2021/11/30 08:12:39;;;;;;;;;;;;;;;;;;2075079;28;1367;-85
2021/11/30 08:13:46;;;;;;;;;;;;;;;;;;2082677;28;1228;-87
2021/11/30 08:14:46;;;;;;;;;;;;;;;;;;2083835;28;1433;-87
2021/11/30 08:15:48;;;;;;;;;;;;;;;;;;2082933;28;1914;-86
2021/11/30 08:16:50;;;;;;;;;;;;;;;;;;2091019;28;1228;-84
2021/11/30 08:17:52;;;;;;;;;;;;;;;;;;2091035;28;813;-84
2021/11/30 08:18:52;;;;;;;;;;;;;;;;;;2091157;28;1239;-85